Time;durP1;ratioP1;P1;durP2;ratioP2;P2;SDS_P1;SDS_P2;PMS_P1;PMS_P2;Temp;Humidity;BMP_temperature;BMP_pressure;BME280_temperature;BME280_humidity;BME280_pressure;Samples;Min_cycle;Max_cycle;Signal;HPM_P1;HPM_P2
2022/01/15 00:01:05;;;;;;;24.17;12.95;;;6.70;99.90;;;;;;5059462;28;20041;-71
2022/01/15 00:03:31;;;;;;;18.92;11.35;;;6.70;99.90;;;;;;5069498;28;20657;-71
2022/01/15 00:05:57;;;;;;;15.35;10.23;;;6.70;99.90;;;;;;5064457;28;20083;-71
2022/01/15 00:08:23;;;;;;;20.42;10.70;;;6.70;99.90;;;;;;5069740;28;20049;-71
2022/01/15 00:10:49;;;;;;;17.63;9.73;;;6.70;99.90;;;;;;5067872;28;20047;-71
2022/01/15 00:13:26;;;;;;;15.65;9.65;;;6.70;99.90;;;;;;5067112;28;20120;-71
2022/01/15 00:16:03;;;;;;;17.83;11.55;;;6.70;99.90;;;;;;5068486;28;20045;-71
2022/01/15 00:18:41;;;;;;;15.20;9.90;;;6.70;99.90;;;;;;5069525;28;20056;-71
2022/01/15 00:21:09;;;;;;;15.60;9.80;;;6.60;99.90;;;;;;5066120;28;20048;-71
2022/01/15 00:23:34;;;;;;;12.02;8.85;;;6.60;99.90;;;;;;5068827;28;20044;-71
2022/01/15 00:26:00;;;;;;;13.77;8.60;;;6.70;99.90;;;;;;5070164;28;20055;-72
2022/01/15 00:28:26;;;;;;;13.23;7.35;;;6.70;99.90;;;;;;5070117;28;20094;-71
2022/01/15 00:30:51;;;;;;;11.07;7.47;;;6.60;99.90;;;;;;5068833;28;20051;-72
2022/01/15 00:33:17;;;;;;;12.15;7.28;;;6.60;99.90;;;;;;5065058;28;20045;-71
2022/01/15 00:35:43;;;;;;;11.45;6.55;;;6.60;99.90;;;;;;5071370;28;20058;-71
2022/01/15 00:38:08;;;;;;;11.07;6.10;;;6.60;99.90;;;;;;5067630;28;20049;-71
2022/01/15 00:40:34;;;;;;;12.05;6.85;;;6.60;99.90;;;;;;5067230;28;20072;-71
2022/01/15 00:43:00;;;;;;;12.75;7.43;;;6.60;99.90;;;;;;5068099;28;20045;-72
2022/01/15 00:45:32;;;;;;;10.60;7.82;;;6.60;99.90;;;;;;5066887;28;20151;-71
2022/01/15 00:47:57;;;;;;;11.77;6.80;;;6.60;99.90;;;;;;5085356;28;20109;-72
2022/01/15 00:50:23;;;;;;;14.40;7.25;;;6.60;99.90;;;;;;5068554;28;20504;-72
2022/01/15 00:52:50;;;;;;;10.07;6.25;;;6.60;99.90;;;;;;5066787;28;20441;-71
2022/01/15 00:55:17;;;;;;;11.60;6.80;;;6.60;99.90;;;;;;5068666;28;20131;-71
2022/01/15 00:57:43;;;;;;;10.57;6.75;;;6.60;99.90;;;;;;5066125;28;20135;-71
2022/01/15 01:00:13;;;;;;;13.32;6.82;;;6.60;99.90;;;;;;5063963;28;20135;-71
2022/01/15 01:02:39;;;;;;;9.52;6.50;;;6.60;99.90;;;;;;5065902;28;20040;-71
2022/01/15 01:05:06;;;;;;;12.65;7.07;;;6.60;99.90;;;;;;5066564;28;20047;-71
2022/01/15 01:07:31;;;;;;;9.65;5.63;;;6.60;99.90;;;;;;5066611;28;20144;-71
2022/01/15 01:20:30;;;;;;;8.40;5.72;;;6.60;99.90;;;;;;5067864;28;20054;-71
2022/01/15 01:22:57;;;;;;;7.22;4.95;;;6.60;99.90;;;;;;5068808;28;20044;-71
2022/01/15 01:25:30;;;;;;;9.57;6.22;;;6.60;99.90;;;;;;5064199;28;20052;-71
2022/01/15 01:28:04;;;;;;;10.93;5.38;;;6.60;99.90;;;;;;5059987;28;20036;-71
2022/01/15 01:30:36;;;;;;;6.15;4.80;;;6.60;99.90;;;;;;5052563;28;20053;-71
2022/01/15 01:35:44;;;;;;;7.90;4.60;;;6.60;99.90;;;;;;5058968;28;20052;-72
2022/01/15 01:38:23;;;;;;;8.65;4.78;;;6.60;99.90;;;;;;5059217;28;20052;-72
2022/01/15 01:40:50;;;;;;;8.38;5.18;;;6.60;99.90;;;;;;5066316;28;20072;-71
2022/01/15 01:45:50;;;;;;;10.82;6.72;;;6.50;99.90;;;;;;5081382;28;20044;-71
2022/01/15 01:48:16;;;;;;;9.65;5.53;;;6.60;99.90;;;;;;5062135;28;20041;-71
2022/01/15 01:50:42;;;;;;;9.70;6.43;;;6.60;99.90;;;;;;5066303;28;20408;-71
2022/01/15 01:53:09;;;;;;;9.75;5.05;;;6.60;99.90;;;;;;5067003;28;20512;-71
2022/01/15 01:55:35;;;;;;;8.60;5.10;;;6.60;99.90;;;;;;5049473;28;20041;-71
2022/01/15 01:58:01;;;;;;;7.90;5.35;;;6.50;99.90;;;;;;5066741;28;20076;-72
2022/01/15 02:00:30;;;;;;;9.05;5.07;;;6.50;99.90;;;;;;5064988;28;20044;-71
2022/01/15 02:02:57;;;;;;;8.20;5.43;;;6.50;99.90;;;;;;5052165;28;20048;-71
2022/01/15 02:05:23;;;;;;;8.80;6.25;;;6.50;99.90;;;;;;5048503;28;21281;-71
2022/01/15 02:07:49;;;;;;;10.35;5.78;;;6.50;99.90;;;;;;5064352;28;20056;-71
2022/01/15 02:10:18;;;;;;;7.97;5.45;;;6.50;99.90;;;;;;5065147;28;20045;-71
2022/01/15 02:12:46;;;;;;;8.07;4.75;;;6.50;99.90;;;;;;5059745;28;20051;-71
2022/01/15 02:15:16;;;;;;;7.50;4.78;;;6.50;99.90;;;;;;5065236;28;20044;-71
2022/01/15 02:17:44;;;;;;;6.75;4.30;;;6.50;99.90;;;;;;5069691;28;20055;-71
2022/01/15 02:25:42;;;;;;;9.10;5.93;;;6.50;99.90;;;;;;5056549;28;20062;-71
2022/01/15 02:28:09;;;;;;;12.80;6.70;;;6.50;99.90;;;;;;5056851;28;20047;-71
2022/01/15 02:30:34;;;;;;;9.30;5.53;;;6.50;99.90;;;;;;5068046;28;20141;-71
2022/01/15 02:33:00;;;;;;;8.65;5.60;;;6.50;99.90;;;;;;5067073;28;20149;-71
2022/01/15 02:35:26;;;;;;;8.05;5.72;;;6.50;99.90;;;;;;5068207;28;20044;-71
2022/01/15 02:37:51;;;;;;;7.70;5.18;;;6.50;99.90;;;;;;5066073;28;20494;-71
2022/01/15 02:40:17;;;;;;;9.63;6.22;;;6.50;99.90;;;;;;5066887;28;20055;-71
2022/01/15 02:42:43;;;;;;;6.70;4.90;;;6.50;99.90;;;;;;5066127;28;20417;-71
2022/01/15 02:45:09;;;;;;;10.30;6.20;;;6.50;99.90;;;;;;5057343;28;20043;-71
2022/01/15 02:50:21;;;;;;;12.32;6.20;;;6.50;99.90;;;;;;5067447;28;20059;-71
2022/01/15 02:52:47;;;;;;;7.03;5.05;;;6.50;99.90;;;;;;5068059;28;20409;-71
2022/01/15 02:55:13;;;;;;;10.55;6.35;;;6.50;99.90;;;;;;5071836;28;20045;-71
2022/01/15 02:57:39;;;;;;;12.55;6.15;;;6.50;99.90;;;;;;5071340;28;20076;-71
2022/01/15 03:00:05;;;;;;;13.48;8.35;;;6.50;99.90;;;;;;5069498;28;20037;-71
2022/01/15 03:02:33;;;;;;;8.98;6.32;;;6.50;99.90;;;;;;5064850;28;20056;-71
2022/01/15 03:04:59;;;;;;;11.07;7.33;;;6.40;99.90;;;;;;5068932;28;20127;-71
2022/01/15 03:07:27;;;;;;;9.30;6.07;;;6.40;99.90;;;;;;5068317;28;20310;-72
2022/01/15 03:09:53;;;;;;;8.93;5.97;;;6.40;99.90;;;;;;5068595;28;20036;-71
2022/01/15 03:12:18;;;;;;;8.73;5.97;;;6.40;99.90;;;;;;5070174;28;20036;-71
2022/01/15 03:14:47;;;;;;;10.20;6.05;;;6.40;99.90;;;;;;5084126;28;20655;-71
2022/01/15 03:17:12;;;;;;;7.80;4.85;;;6.40;99.90;;;;;;5070459;28;20106;-71
2022/01/15 03:19:38;;;;;;;10.27;6.03;;;6.40;99.90;;;;;;5068731;28;20075;-71
2022/01/15 03:22:04;;;;;;;9.85;5.65;;;6.40;99.90;;;;;;5067912;28;20048;-71
2022/01/15 03:24:30;;;;;;;9.85;5.68;;;6.40;99.90;;;;;;5069429;28;20052;-71
2022/01/15 03:26:55;;;;;;;8.38;5.70;;;6.40;99.90;;;;;;5068596;28;20071;-71
2022/01/15 03:29:21;;;;;;;8.85;6.07;;;6.40;99.90;;;;;;5070073;28;20063;-71
2022/01/15 03:31:47;;;;;;;8.43;6.05;;;6.40;99.90;;;;;;5069330;28;20044;-71
2022/01/15 03:34:13;;;;;;;8.98;5.05;;;6.40;99.90;;;;;;5066521;28;20167;-71
2022/01/15 03:36:38;;;;;;;8.75;5.07;;;6.40;99.90;;;;;;5066922;28;20083;-71
2022/01/15 03:39:04;;;;;;;10.60;6.10;;;6.40;99.90;;;;;;5068111;28;20048;-71
2022/01/15 03:41:30;;;;;;;8.32;5.88;;;6.40;99.90;;;;;;5064443;28;20052;-71
2022/01/15 03:43:55;;;;;;;7.20;5.25;;;6.40;99.90;;;;;;5062409;28;20406;-72
2022/01/15 03:46:22;;;;;;;9.73;5.53;;;6.40;99.90;;;;;;5062179;28;20509;-71
2022/01/15 03:48:47;;;;;;;8.02;5.43;;;6.40;99.90;;;;;;5066774;28;20048;-72
2022/01/15 03:51:14;;;;;;;11.50;6.35;;;6.30;99.90;;;;;;5069953;28;20040;-71
2022/01/15 03:53:40;;;;;;;7.78;5.40;;;6.30;99.90;;;;;;5068390;28;20101;-72
2022/01/15 03:56:06;;;;;;;9.05;5.72;;;6.30;99.90;;;;;;5069492;28;20052;-72
2022/01/15 03:58:31;;;;;;;10.10;6.38;;;6.30;99.90;;;;;;5069584;28;20382;-72
2022/01/15 04:00:57;;;;;;;8.70;5.95;;;6.30;99.90;;;;;;5059554;28;20044;-71
2022/01/15 04:03:23;;;;;;;8.80;5.65;;;6.30;99.90;;;;;;5069056;28;20103;-71
2022/01/15 04:05:48;;;;;;;6.70;5.03;;;6.30;99.90;;;;;;5070281;28;20461;-71
2022/01/15 04:08:14;;;;;;;7.85;4.82;;;6.30;99.90;;;;;;5068758;28;20102;-71
2022/01/15 04:10:40;;;;;;;8.80;5.50;;;6.30;99.90;;;;;;5068333;28;20098;-71
2022/01/15 04:13:06;;;;;;;11.57;4.88;;;6.40;99.90;;;;;;5068896;28;20127;-72
2022/01/15 04:15:31;;;;;;;6.85;4.72;;;6.30;99.90;;;;;;5071468;28;20163;-71
2022/01/15 04:17:57;;;;;;;7.40;5.05;;;6.30;99.90;;;;;;5066624;28;20094;-71
2022/01/15 04:20:23;;;;;;;10.25;4.90;;;6.30;99.90;;;;;;5052011;28;20095;-71
2022/01/15 04:22:51;;;;;;;8.43;5.78;;;6.30;99.90;;;;;;5068591;28;20051;-71
2022/01/15 04:25:17;;;;;;;8.83;5.20;;;6.30;99.90;;;;;;5056299;28;20103;-71
2022/01/15 04:27:44;;;;;;;10.82;5.28;;;6.30;99.90;;;;;;5068435;28;20086;-71
2022/01/15 04:30:12;;;;;;;8.43;5.05;;;6.30;99.90;;;;;;5068674;28;20136;-71
2022/01/15 04:32:39;;;;;;;7.85;5.35;;;6.30;99.90;;;;;;5067820;28;20516;-71
2022/01/15 04:35:05;;;;;;;8.82;5.72;;;6.30;99.90;;;;;;5064691;28;20046;-71
2022/01/15 04:37:42;;;;;;;9.05;5.45;;;6.20;99.90;;;;;;5070570;28;20044;-71
2022/01/15 04:40:09;;;;;;;8.48;5.53;;;6.30;99.90;;;;;;5068110;28;20080;-71
2022/01/15 04:42:36;;;;;;;11.32;5.72;;;6.30;99.90;;;;;;5076315;28;20097;-71
2022/01/15 04:45:03;;;;;;;10.93;5.80;;;6.30;99.90;;;;;;5078964;28;20052;-71
2022/01/15 04:47:30;;;;;;;7.68;5.43;;;6.20;99.90;;;;;;5067228;28;20548;-71
2022/01/15 04:49:56;;;;;;;9.60;5.93;;;6.20;99.90;;;;;;5070568;28;20055;-71
2022/01/15 04:52:25;;;;;;;7.78;4.93;;;6.20;99.90;;;;;;5068395;28;20045;-71
2022/01/15 04:54:51;;;;;;;7.88;5.18;;;6.30;99.90;;;;;;5068549;28;20536;-72
2022/01/15 04:57:16;;;;;;;9.68;5.05;;;6.30;99.90;;;;;;5067966;28;20037;-71
2022/01/15 04:59:42;;;;;;;9.73;5.82;;;6.30;99.90;;;;;;5069208;28;20499;-71
2022/01/15 05:02:08;;;;;;;8.10;5.00;;;6.30;99.90;;;;;;5075902;28;20048;-71
2022/01/15 05:04:34;;;;;;;7.70;5.95;;;6.30;99.90;;;;;;5075126;28;20052;-71
2022/01/15 05:07:00;;;;;;;9.48;6.20;;;6.20;99.90;;;;;;5065458;28;20135;-71
2022/01/15 05:09:26;;;;;;;10.30;6.82;;;6.20;99.90;;;;;;5068091;28;20147;-71
2022/01/15 05:12:10;;;;;;;10.18;6.38;;;6.20;99.90;;;;;;5067187;28;20629;-71
2022/01/15 05:14:36;;;;;;;7.85;5.43;;;6.20;99.90;;;;;;5066767;28;20055;-71
2022/01/15 05:17:02;;;;;;;6.63;5.22;;;6.20;99.90;;;;;;5069759;28;20123;-71
2022/01/15 05:19:28;;;;;;;8.07;5.63;;;6.20;99.90;;;;;;5068371;28;20049;-71
2022/01/15 05:21:57;;;;;;;12.10;7.07;;;6.20;99.90;;;;;;5065470;28;20044;-71
2022/01/15 05:24:26;;;;;;;9.10;6.25;;;6.20;99.90;;;;;;5067795;28;20046;-71
2022/01/15 05:26:54;;;;;;;11.27;6.72;;;6.20;99.90;;;;;;5068581;28;20059;-71
2022/01/15 05:29:20;;;;;;;;;;;6.10;99.90;;;;;;5059809;28;20052;-71
2022/01/15 05:31:46;;;;;;;12.27;6.70;;;6.10;99.90;;;;;;5069282;28;19933;-71
2022/01/15 05:34:11;;;;;;;10.45;6.72;;;6.10;99.90;;;;;;5068207;28;20040;-71
2022/01/15 05:36:39;;;;;;;9.65;5.97;;;6.10;99.90;;;;;;5067706;28;20469;-71
2022/01/15 05:39:05;;;;;;;11.83;7.13;;;6.10;99.90;;;;;;5072693;28;20051;-71
2022/01/15 05:41:32;;;;;;;11.88;6.63;;;6.10;99.90;;;;;;5067025;28;20094;-71
2022/01/15 05:44:01;;;;;;;12.30;6.65;;;6.10;99.90;;;;;;5069311;28;20413;-71
2022/01/15 05:46:28;;;;;;;9.20;6.13;;;6.10;99.90;;;;;;5084722;28;20055;-71
2022/01/15 05:48:54;;;;;;;12.38;6.68;;;6.10;99.90;;;;;;5067544;28;20045;-71
2022/01/15 05:51:20;;;;;;;9.88;6.50;;;6.10;99.90;;;;;;5067634;28;20044;-71
2022/01/15 05:53:45;;;;;;;10.00;6.22;;;6.20;99.90;;;;;;5066544;28;20102;-71
2022/01/15 05:56:11;;;;;;;11.30;6.60;;;6.20;99.90;;;;;;5068530;28;20048;-71
2022/01/15 05:58:37;;;;;;;9.73;6.28;;;6.20;99.90;;;;;;5077390;28;20044;-71
2022/01/15 06:01:03;;;;;;;13.80;7.15;;;6.20;99.90;;;;;;5072209;28;20580;-71
2022/01/15 06:03:28;;;;;;;14.38;8.13;;;6.20;99.90;;;;;;5068597;28;20497;-71
2022/01/15 06:05:54;;;;;;;16.25;7.35;;;6.20;99.90;;;;;;5068169;28;20056;-71
2022/01/15 06:08:23;;;;;;;12.02;6.75;;;6.10;99.90;;;;;;5068310;28;20060;-71
2022/01/15 06:10:48;;;;;;;13.48;8.00;;;6.10;99.90;;;;;;5068182;28;20040;-71
2022/01/15 06:13:14;;;;;;;13.90;8.75;;;6.10;99.90;;;;;;5066237;28;20049;-71
2022/01/15 06:15:40;;;;;;;29.38;12.35;;;6.10;99.90;;;;;;5049829;28;20049;-71
2022/01/15 06:18:05;;;;;;;28.48;13.65;;;6.10;99.90;;;;;;5068750;28;20052;-71
2022/01/15 06:20:31;;;;;;;24.38;12.00;;;6.10;99.90;;;;;;5067612;28;20489;-71
2022/01/15 06:22:57;;;;;;;16.13;9.98;;;6.10;99.90;;;;;;5065591;28;20048;-71
2022/01/15 06:25:22;;;;;;;18.35;9.00;;;6.10;99.90;;;;;;5066111;28;20123;-71
2022/01/15 06:27:48;;;;;;;20.05;9.00;;;6.10;99.90;;;;;;5074820;28;20419;-71
2022/01/15 06:30:15;;;;;;;13.68;7.97;;;6.10;99.90;;;;;;5073827;28;20048;-71
2022/01/15 06:32:40;;;;;;;20.55;10.98;;;6.10;99.90;;;;;;5073547;28;20044;-71
2022/01/15 06:35:12;;;;;;;19.50;11.35;;;6.10;99.90;;;;;;5071851;28;20121;-72
2022/01/15 06:37:39;;;;;;;18.27;10.38;;;6.10;99.90;;;;;;5073099;28;20127;-71
2022/01/15 06:40:06;;;;;;;16.63;8.80;;;6.10;99.90;;;;;;5072941;28;20060;-71
2022/01/15 06:42:32;;;;;;;13.05;8.00;;;6.10;99.90;;;;;;5073532;28;20056;-71
2022/01/15 06:44:58;;;;;;;21.23;9.98;;;6.10;99.90;;;;;;5072964;28;20056;-71
2022/01/15 06:47:23;;;;;;;15.88;8.75;;;6.10;99.90;;;;;;5074433;28;20114;-71
2022/01/15 06:49:49;;;;;;;21.75;10.40;;;6.10;99.90;;;;;;5088157;28;20044;-71
2022/01/15 06:52:15;;;;;;;14.25;8.73;;;6.10;99.90;;;;;;5071688;28;20055;-71
2022/01/15 06:54:40;;;;;;;14.15;8.45;;;6.10;99.90;;;;;;5071242;28;20052;-71
2022/01/15 06:57:06;;;;;;;17.27;9.32;;;6.10;99.90;;;;;;5072804;28;20041;-71
2022/01/15 06:59:32;;;;;;;12.23;7.82;;;6.10;99.90;;;;;;5055221;28;20036;-71
2022/01/15 07:01:57;;;;;;;12.60;7.82;;;6.00;99.90;;;;;;5075024;28;20048;-72
2022/01/15 07:04:23;;;;;;;15.20;7.65;;;6.00;99.90;;;;;;5073731;28;20127;-71
2022/01/15 07:06:49;;;;;;;15.07;8.00;;;6.00;99.90;;;;;;5074906;28;20076;-71
2022/01/15 07:09:14;;;;;;;9.98;6.35;;;6.00;99.90;;;;;;5071559;28;20080;-71
2022/01/15 07:11:41;;;;;;;13.73;7.55;;;6.00;99.90;;;;;;5056333;28;20988;-71
2022/01/15 07:14:08;;;;;;;12.75;6.30;;;6.00;99.90;;;;;;5069542;28;20131;-71
2022/01/15 07:16:34;;;;;;;10.70;6.03;;;6.00;99.90;;;;;;5074869;28;20139;-71
2022/01/15 07:19:00;;;;;;;10.30;6.40;;;6.00;99.90;;;;;;5071617;28;20052;-71
2022/01/15 07:21:26;;;;;;;15.00;7.30;;;6.00;99.90;;;;;;5067323;28;20044;-71
2022/01/15 07:23:52;;;;;;;14.68;6.50;;;6.00;99.90;;;;;;5072711;28;20044;-71
2022/01/15 07:26:18;;;;;;;13.23;7.20;;;6.00;99.90;;;;;;5071292;28;20457;-71
2022/01/15 07:28:43;;;;;;;14.65;6.65;;;6.00;99.90;;;;;;5072138;28;20098;-71
2022/01/15 07:31:09;;;;;;;12.23;6.75;;;5.90;99.90;;;;;;5071207;28;20044;-71
2022/01/15 07:33:34;;;;;;;13.57;7.07;;;6.00;99.90;;;;;;5055703;28;20788;-71
2022/01/15 07:36:00;;;;;;;14.48;8.32;;;6.00;99.90;;;;;;5086650;28;20044;-71
2022/01/15 07:38:26;;;;;;;14.60;8.93;;;6.00;99.90;;;;;;5069662;28;20046;-71
2022/01/15 07:40:57;;;;;;;17.52;9.57;;;6.00;99.90;;;;;;5060861;28;20048;-71
2022/01/15 07:43:23;;;;;;;20.95;11.60;;;6.00;99.90;;;;;;5050779;28;20410;-71
2022/01/15 07:45:50;;;;;;;23.17;10.40;;;6.00;99.90;;;;;;5061525;28;20490;-71
2022/01/15 07:48:15;;;;;;;17.55;9.60;;;6.00;99.90;;;;;;5065736;28;20040;-71
2022/01/15 07:50:41;;;;;;;21.75;8.27;;;6.00;99.90;;;;;;5069032;28;20589;-71
2022/01/15 07:53:07;;;;;;;16.42;9.77;;;6.00;99.90;;;;;;5069331;28;20040;-71
2022/01/15 07:55:33;;;;;;;20.42;11.30;;;5.90;99.90;;;;;;5083248;28;20048;-71
2022/01/15 07:57:58;;;;;;;19.50;10.60;;;5.90;99.90;;;;;;5078200;28;20893;-71
2022/01/15 08:00:24;;;;;;;19.52;11.20;;;5.90;99.90;;;;;;5070992;28;20053;-71
2022/01/15 08:02:50;;;;;;;20.17;11.05;;;5.90;99.90;;;;;;5064282;28;20453;-71
2022/01/15 08:05:15;;;;;;;20.10;14.13;;;5.90;99.90;;;;;;5069643;28;20574;-71
2022/01/15 08:07:42;;;;;;;27.52;18.92;;;5.90;99.90;;;;;;5072010;28;20044;-71
2022/01/15 08:10:08;;;;;;;35.00;26.45;;;5.90;99.90;;;;;;5075583;28;20048;-71
2022/01/15 08:12:42;;;;;;;36.58;28.77;;;5.90;99.90;;;;;;5081147;28;20052;-71
2022/01/15 08:15:08;;;;;;;32.53;23.42;;;5.90;99.90;;;;;;5070082;28;20154;-71
2022/01/15 08:17:34;;;;;;;38.60;27.00;;;5.90;99.90;;;;;;5080278;28;20040;-71
2022/01/15 08:20:00;;;;;;;44.63;27.70;;;5.90;99.90;;;;;;5068372;28;20060;-71
2022/01/15 08:22:25;;;;;;;38.88;24.95;;;5.90;99.90;;;;;;5066878;28;20044;-72
2022/01/15 08:24:51;;;;;;;40.17;25.77;;;5.90;99.90;;;;;;5073106;28;20032;-71
2022/01/15 08:27:17;;;;;;;27.27;19.50;;;6.00;99.90;;;;;;5061516;28;20075;-71
2022/01/15 08:29:42;;;;;;;30.10;18.42;;;6.00;99.90;;;;;;5066921;28;20132;-71
2022/01/15 08:32:08;;;;;;;34.65;19.45;;;6.00;99.90;;;;;;5063459;28;20579;-72
2022/01/15 08:34:34;;;;;;;34.35;19.65;;;5.90;99.90;;;;;;5064140;28;20072;-71
2022/01/15 08:37:00;;;;;;;35.58;18.85;;;6.00;99.90;;;;;;5061384;28;20044;-71
2022/01/15 08:39:25;;;;;;;38.47;22.20;;;6.00;99.90;;;;;;5065985;28;20045;-71
2022/01/15 08:41:51;;;;;;;44.42;22.55;;;5.90;99.90;;;;;;5067662;28;20052;-71
2022/01/15 08:44:23;;;;;;;45.53;22.50;;;6.00;99.90;;;;;;5068159;28;20123;-71
2022/01/15 08:46:50;;;;;;;39.22;19.45;;;6.00;99.90;;;;;;5066642;28;20127;-71
2022/01/15 08:49:16;;;;;;;42.05;20.77;;;6.00;99.90;;;;;;5067564;28;20048;-71
2022/01/15 08:51:42;;;;;;;39.55;19.70;;;6.00;99.90;;;;;;5067723;28;20044;-71
2022/01/15 08:54:08;;;;;;;33.75;20.25;;;6.00;99.90;;;;;;5067330;28;20131;-71
2022/01/15 08:56:34;;;;;;;44.30;23.85;;;6.00;99.90;;;;;;5069128;28;20351;-71
2022/01/15 08:59:00;;;;;;;35.38;20.33;;;6.00;99.90;;;;;;5066823;28;20049;-71
2022/01/15 09:01:25;;;;;;;35.47;20.40;;;6.00;99.90;;;;;;5066200;28;20045;-71
2022/01/15 09:03:51;;;;;;;41.72;21.88;;;6.00;99.90;;;;;;5063798;28;20461;-72
2022/01/15 09:06:17;;;;;;;35.20;18.77;;;6.00;99.90;;;;;;5057694;28;20575;-71
2022/01/15 09:08:43;;;;;;;29.42;17.55;;;6.00;99.90;;;;;;5065097;28;20072;-71
2022/01/15 09:11:09;;;;;;;36.25;18.60;;;6.00;99.90;;;;;;5064828;28;20085;-71
2022/01/15 09:13:35;;;;;;;32.28;15.75;;;6.00;99.90;;;;;;5069213;28;20048;-71
2022/01/15 09:16:02;;;;;;;28.05;15.13;;;6.00;99.90;;;;;;5068654;28;20059;-71
2022/01/15 09:18:29;;;;;;;27.80;15.98;;;6.00;99.90;;;;;;5068904;28;20067;-71
2022/01/15 09:20:55;;;;;;;26.75;16.67;;;6.00;99.90;;;;;;5065397;28;20056;-71
2022/01/15 09:23:21;;;;;;;27.50;15.05;;;5.90;99.90;;;;;;5066816;28;20044;-71
2022/01/15 09:25:49;;;;;;;30.65;17.83;;;6.00;99.90;;;;;;5066995;28;20045;-71
2022/01/15 09:30:59;;;;;;;34.90;18.67;;;6.00;99.90;;;;;;5067080;28;20279;-71
2022/01/15 09:33:25;;;;;;;35.08;19.25;;;6.00;99.90;;;;;;5065182;28;20540;-71
2022/01/15 09:35:51;;;;;;;35.42;19.63;;;6.00;99.90;;;;;;5056744;28;20044;-71
2022/01/15 09:38:16;;;;;;;32.97;18.48;;;6.10;99.90;;;;;;5068982;28;20056;-71
2022/01/15 09:40:43;;;;;;;37.13;20.58;;;6.10;99.90;;;;;;5061931;28;20052;-71
2022/01/15 09:43:09;;;;;;;37.10;21.90;;;6.10;99.90;;;;;;5062655;28;20049;-71
2022/01/15 09:45:35;;;;;;;33.83;19.02;;;6.10;99.90;;;;;;5067109;28;20540;-71
2022/01/15 09:48:04;;;;;;;31.65;17.33;;;6.10;99.90;;;;;;5058867;28;20475;-71
2022/01/15 09:50:33;;;;;;;28.13;15.73;;;6.10;99.90;;;;;;5064333;28;20041;-71
2022/01/15 09:52:58;;;;;;;29.95;16.73;;;6.10;99.90;;;;;;5064630;28;20490;-71
2022/01/15 09:55:25;;;;;;;32.22;16.88;;;6.10;99.90;;;;;;5061300;28;20067;-71
2022/01/15 09:57:52;;;;;;;36.83;19.25;;;6.10;99.90;;;;;;5042109;28;20532;-71
2022/01/15 10:00:19;;;;;;;30.60;16.92;;;6.10;99.90;;;;;;5061770;28;20052;-70
2022/01/15 10:02:47;;;;;;;31.60;18.17;;;6.20;99.90;;;;;;5064445;28;20048;-71
2022/01/15 10:05:15;;;;;;;33.20;17.67;;;6.20;99.90;;;;;;5058370;28;20171;-71
2022/01/15 10:07:59;;;;;;;28.67;15.95;;;6.20;99.90;;;;;;5067068;28;20057;-71
2022/01/15 10:10:26;;;;;;;29.67;17.95;;;6.20;99.90;;;;;;5069556;28;20048;-71
2022/01/15 10:12:52;;;;;;;24.63;16.02;;;6.10;99.90;;;;;;5066559;28;20131;-71
2022/01/15 10:15:19;;;;;;;30.90;18.52;;;6.10;99.90;;;;;;5067563;28;20130;-71
2022/01/15 10:17:45;;;;;;;29.10;19.75;;;6.10;99.90;;;;;;5067008;28;20512;-71
2022/01/15 10:20:13;;;;;;;25.77;17.95;;;6.10;99.90;;;;;;5065881;28;20127;-70
2022/01/15 10:22:44;;;;;;;25.98;18.50;;;6.10;99.90;;;;;;5057797;28;20091;-70
2022/01/15 10:25:18;;;;;;;24.27;17.25;;;6.10;99.90;;;;;;5066287;28;20044;-71
2022/01/15 10:27:54;;;;;;;30.52;19.58;;;6.20;99.90;;;;;;5067012;28;20116;-71
2022/01/15 10:30:23;;;;;;;30.33;19.98;;;6.10;99.90;;;;;;5067417;28;20062;-71
2022/01/15 10:32:56;;;;;;;35.47;22.77;;;6.10;99.90;;;;;;5068166;28;20052;-71
2022/01/15 10:35:25;;;;;;;36.20;22.85;;;6.10;99.90;;;;;;5065366;28;20514;-71
2022/01/15 10:37:56;;;;;;;35.95;22.75;;;6.10;99.90;;;;;;5066220;28;20049;-70
2022/01/15 10:40:25;;;;;;;32.10;21.52;;;6.10;99.90;;;;;;5056165;28;20052;-71
2022/01/15 10:42:59;;;;;;;36.67;24.27;;;6.10;99.90;;;;;;5050130;28;20082;-71
2022/01/15 10:45:27;;;;;;;32.92;23.50;;;6.10;99.90;;;;;;5063113;28;20072;-71
2022/01/15 10:47:55;;;;;;;34.10;22.55;;;6.00;99.90;;;;;;5065842;28;20391;-68
2022/01/15 10:50:26;;;;;;;30.08;21.80;;;6.00;99.90;;;;;;5063608;28;20072;-69
2022/01/15 10:52:54;;;;;;;34.00;23.30;;;6.00;99.90;;;;;;5066195;28;20050;-69
2022/01/15 10:55:26;;;;;;;35.08;23.80;;;6.00;99.90;;;;;;5061833;28;20056;-69
2022/01/15 10:57:57;;;;;;;37.55;24.92;;;6.00;99.90;;;;;;5056727;28;20052;-69
2022/01/15 11:00:42;;;;;;;36.35;24.58;;;6.00;99.90;;;;;;5062623;28;20044;-69
2022/01/15 11:03:12;;;;;;;34.78;23.05;;;6.10;99.90;;;;;;5066928;28;20045;-70
2022/01/15 11:05:42;;;;;;;40.80;25.27;;;6.10;99.90;;;;;;5066194;28;20095;-69
2022/01/15 11:08:26;;;;;;;49.15;27.40;;;6.00;99.90;;;;;;5067439;28;20051;-69
2022/01/15 11:10:54;;;;;;;50.35;28.38;;;6.00;99.90;;;;;;5066284;28;20154;-69
2022/01/15 11:13:33;;;;;;;46.63;27.67;;;6.00;99.90;;;;;;5062203;28;20045;-70
2022/01/15 11:16:01;;;;;;;47.55;28.75;;;6.00;99.90;;;;;;5067498;28;20059;-70
2022/01/15 11:18:33;;;;;;;48.38;28.27;;;6.00;99.90;;;;;;5066475;28;20055;-70
2022/01/15 11:21:13;;;;;;;46.60;28.48;;;6.10;99.90;;;;;;5070660;28;20086;-69
2022/01/15 11:23:40;;;;;;;49.53;28.77;;;6.00;99.90;;;;;;5070052;28;20052;-69
2022/01/15 11:26:19;;;;;;;53.70;30.85;;;6.00;99.90;;;;;;5069977;28;20041;-69
2022/01/15 11:28:45;;;;;;;42.03;27.25;;;6.10;99.90;;;;;;5068757;28;20545;-69
2022/01/15 11:31:25;;;;;;;49.33;29.13;;;6.10;99.90;;;;;;5070323;28;20124;-70
2022/01/15 11:33:55;;;;;;;49.42;28.35;;;6.10;99.90;;;;;;5070872;28;20406;-70
2022/01/15 11:36:35;;;;;;;47.92;27.75;;;6.00;99.90;;;;;;5069580;28;20124;-69
2022/01/15 11:39:14;;;;;;;48.00;28.98;;;6.10;99.90;;;;;;5063320;28;20077;-69
2022/01/15 11:41:41;;;;;;;50.05;27.67;;;6.00;99.90;;;;;;5064084;28;20049;-69
2022/01/15 11:44:21;;;;;;;52.63;30.73;;;6.00;99.90;;;;;;5070965;28;20440;-70
2022/01/15 11:46:50;;;;;;;53.58;29.60;;;6.00;99.90;;;;;;5069395;28;20052;-70
2022/01/15 11:49:41;;;;;;;56.95;29.52;;;6.00;99.90;;;;;;5065882;28;20492;-70
2022/01/15 11:52:11;;;;;;;52.78;29.77;;;6.00;99.90;;;;;;5067362;28;20076;-69
2022/01/15 11:54:57;;;;;;;50.55;29.75;;;5.90;99.90;;;;;;5063620;28;20053;-70
2022/01/15 11:57:53;;;;;;;59.92;30.35;;;6.00;99.90;;;;;;5065246;28;20049;-70
2022/01/15 12:00:27;;;;;;;41.85;26.65;;;6.00;99.90;;;;;;5069912;28;20059;-69
2022/01/15 12:03:00;;;;;;;55.83;29.25;;;5.90;99.90;;;;;;5069830;28;20055;-70
2022/01/15 12:05:27;;;;;;;46.00;28.60;;;5.90;99.90;;;;;;5067929;28;20126;-70
2022/01/15 12:08:19;;;;;;;45.78;26.45;;;5.90;99.90;;;;;;5065276;28;20186;-69
2022/01/15 12:10:52;;;;;;;49.72;27.85;;;5.90;99.90;;;;;;5063986;28;20041;-69
2022/01/15 12:13:23;;;;;;;49.60;27.92;;;6.00;99.90;;;;;;5069111;28;20182;-69
2022/01/15 12:16:09;;;;;;;45.15;27.85;;;6.00;99.90;;;;;;5068539;28;20040;-69
2022/01/15 12:18:45;;;;;;;41.90;25.95;;;5.90;99.90;;;;;;5066584;28;20094;-69
2022/01/15 12:21:11;;;;;;;44.17;26.05;;;5.90;99.90;;;;;;5067785;28;20132;-69
2022/01/15 12:23:37;;;;;;;43.83;26.15;;;5.90;99.90;;;;;;5061158;28;20123;-69
2022/01/15 12:26:09;;;;;;;37.33;24.73;;;5.80;99.90;;;;;;5070107;28;20466;-70
2022/01/15 12:28:34;;;;;;;43.35;24.73;;;5.80;99.90;;;;;;5068505;28;20497;-69
2022/01/15 12:31:00;;;;;;;41.90;25.88;;;5.80;99.90;;;;;;5075230;28;20048;-69
2022/01/15 12:33:26;;;;;;;44.53;26.13;;;5.80;99.90;;;;;;5060057;28;20048;-69
2022/01/15 12:35:55;;;;;;;47.85;28.67;;;5.80;99.90;;;;;;5065784;28;20041;-69
2022/01/15 12:38:25;;;;;;;46.40;27.60;;;5.80;99.90;;;;;;5069972;28;20184;-69
2022/01/15 12:40:54;;;;;;;43.40;28.65;;;5.80;99.90;;;;;;5068246;28;20060;-69
2022/01/15 12:43:26;;;;;;;40.90;28.05;;;5.80;99.90;;;;;;5068900;28;20055;-69
2022/01/15 12:45:58;;;;;;;41.85;26.60;;;5.80;99.90;;;;;;5070003;28;20137;-69
2022/01/15 12:48:30;;;;;;;39.72;24.70;;;5.80;99.90;;;;;;5051680;28;20048;-69
2022/01/15 12:51:02;;;;;;;39.05;23.88;;;5.80;99.90;;;;;;5068136;28;20044;-70
2022/01/15 12:53:34;;;;;;;44.13;26.77;;;5.80;99.90;;;;;;5059564;28;20494;-69
2022/01/15 12:55:59;;;;;;;45.20;26.55;;;5.70;99.90;;;;;;5064196;28;20040;-70
2022/01/15 12:58:28;;;;;;;48.67;27.05;;;5.70;99.90;;;;;;5068625;28;20048;-70
2022/01/15 13:00:54;;;;;;;;;;;5.70;99.90;;;;;;5069435;28;20064;-70
2022/01/15 13:03:23;;;;;;;44.75;27.88;;;5.60;99.90;;;;;;5069678;28;20442;-70
2022/01/15 13:05:54;;;;;;;46.83;28.80;;;5.60;99.90;;;;;;5064923;28;20123;-70
2022/01/15 13:08:30;;;;;;;47.03;29.13;;;5.60;99.90;;;;;;5063921;28;20049;-70
2022/01/15 13:11:07;;;;;;;45.72;27.65;;;5.60;99.90;;;;;;5054397;28;20059;-71
2022/01/15 13:13:47;;;;;;;42.25;27.98;;;5.70;99.90;;;;;;5067493;28;20052;-70
2022/01/15 13:16:16;;;;;;;49.45;31.48;;;5.70;99.90;;;;;;5065366;28;20102;-70